GCGM Airport Information

Runway Information
Runway 09 Length 4921 ft width 98 ft
Elevation 716 ft Threshold 0 ft Heading 81
Runway 27 Length 4921 ft Width 98 ft
Elevation 712 ft Threshold 0 ft Heading 261
Airport Frequencies
Type GND Name GND Frequency 121.7 MHZ
Type TWR Name TWR Frequency 118.4 MHZ
Airport Navaids
Type VOR-DME Name La Gomera Frequency 116000 KHZ
Airport Weather Information & NOTAM
ADDS - METARS form results

(1119 UTC 17 July 2018)
 
METAR text: GCGM 171100Z 22006KT 170V260 CAVOK 23/17 Q1018 RMK R09/VRB04KT ARP/VRB05KT
Conditions at: GCGM (LA GOMERA ARPT , ES) observed 1100 UTC 17 July 2018
Temperature: 23.0°C (73°F)
Dewpoint: 17.0°C (63°F) [RH = 69%]
Pressure (altimeter): 30.06 inches Hg (1018.0 mb)
Winds: from the SW (220 degrees) at 7 MPH (6 knots; 3.1 m/s)
Visibility: 6 or more miles (10+ km)
Ceiling: ceiling and visibility are OK
Clouds: unknown
Weather: no significant weather observed at this time

METAR text: GCGM 171030Z 22006KT 180V260 9999 FEW030 23/17 Q1018 RMK R09/24005KT 190V290 ARP/VRB06KT
Conditions at: GCGM (LA GOMERA ARPT , ES) observed 1030 UTC 17 July 2018
Temperature: 23.0°C (73°F)
Dewpoint: 17.0°C (63°F) [RH = 69%]
Pressure (altimeter): 30.06 inches Hg (1018.0 mb)
Winds: from the SW (220 degrees) at 7 MPH (6 knots; 3.1 m/s)
Visibility: 6 or more miles (10+ km)
Ceiling: at least 12,000 feet AGL
Clouds: few clouds at 3000 feet AGL
Weather: no significant weather observed at this time